Página principal
METAR-TAF:

METAR-TAF

Aeroportos :

Vientiane, Laos

Aeroporto Internacional de Wattay

latitude: 17-57N, longitude: 102-34E, altura: 171 m

Observação actual do tempo

O boletim foi feito há 44 minutos, às 07:30 UTC
Vento 4 kt de nor-nordeste
Temperatura 28°C
Humidade 84%
Pressão 1005 hPa
Visibilidade 10 km ou mais
Nuvens dispersasa uma altura de 1600 ft
Nuvens fragmentadasa uma altura de 4000 ft

METAR: VLVT 210730Z 02004KT 9999 SCT016 BKN040 28/25 Q1005 NOSIG

Hora: 15:14 (08:14 UTC)

Previsão

O boletim foi feito há 3 horas e 14 minutos, às 05:00 UTC
Previsão válida de 21 às 06 UTC a 22 às 06 UTC
Vento 6 kt de su-sudeste
Visibilidade 10 km ou mais
Nuvens dispersasa uma altura de 2000 ft
Nuvens dispersasa uma altura de 4000 ft
Temporariamente
de 21 às 10 UTC a 21 às 14 UTC
Visibilidade: 4000 m
Nuvens dispersasa uma altura de 1000 ft
Nuvens fragmentadasa uma altura de 8300 ft
chuva

TAF: VLVT 210500Z 2106/2206 16006KT 9999 SCT020 SCT040 TEMPO 2110/2114 4000 RA SCT010 BKN083

Observações e previsões do tempo de mais de 4000 aeroportos (mensagens METAR e TAF).

As estações disponíveis são os pontos amarelos e vermelhos sobre o mapa.

Mova o rato sobre o mapa para ver o nome da estação.

Depois clique no ponto para visualizar as observações e previsões meteorológicas.

Para alterar o mapa : clique nos botões verdes com uma cruz preta para aumentar o zoom; no botão verde com uma pitada de zoom; ou nas setas verdes para mapas adjacentes.


METAR-TAF: